sensor_id;sensor_type;location;lat;lon;timestamp;P1;durP1;ratioP1;P2;durP2;ratioP2
6342;SDS011;3204;42.698;23.298;2023-04-03T00:01:14;4.23;;;4.03;;
6342;SDS011;3204;42.698;23.298;2023-04-03T00:03:40;4.73;;;4.03;;
6342;SDS011;3204;42.698;23.298;2023-04-03T00:06:06;3.75;;;3.50;;
6342;SDS011;3204;42.698;23.298;2023-04-03T00:08:34;7.33;;;4.77;;
6342;SDS011;3204;42.698;23.298;2023-04-03T00:11:00;5.50;;;5.10;;
6342;SDS011;3204;42.698;23.298;2023-04-03T00:13:26;4.50;;;4.13;;
6342;SDS011;3204;42.698;23.298;2023-04-03T00:15:51;3.97;;;3.77;;
6342;SDS011;3204;42.698;23.298;2023-04-03T00:18:17;4.07;;;3.70;;
6342;SDS011;3204;42.698;23.298;2023-04-03T00:20:42;5.87;;;5.47;;
6342;SDS011;3204;42.698;23.298;2023-04-03T00:23:08;7.50;;;6.97;;
6342;SDS011;3204;42.698;23.298;2023-04-03T00:25:34;4.43;;;4.13;;
6342;SDS011;3204;42.698;23.298;2023-04-03T00:27:59;5.67;;;4.83;;
6342;SDS011;3204;42.698;23.298;2023-04-03T00:30:26;8.83;;;6.27;;
6342;SDS011;3204;42.698;23.298;2023-04-03T00:32:52;4.90;;;4.50;;
6342;SDS011;3204;42.698;23.298;2023-04-03T00:35:18;4.50;;;4.13;;
6342;SDS011;3204;42.698;23.298;2023-04-03T00:37:44;5.73;;;5.23;;
6342;SDS011;3204;42.698;23.298;2023-04-03T00:40:12;5.03;;;4.57;;
6342;SDS011;3204;42.698;23.298;2023-04-03T00:42:39;5.60;;;5.30;;
6342;SDS011;3204;42.698;23.298;2023-04-03T00:47:31;7.77;;;6.33;;
6342;SDS011;3204;42.698;23.298;2023-04-03T00:49:57;6.97;;;6.13;;
6342;SDS011;3204;42.698;23.298;2023-04-03T00:52:25;6.90;;;6.27;;
6342;SDS011;3204;42.698;23.298;2023-04-03T00:54:54;8.47;;;6.50;;
6342;SDS011;3204;42.698;23.298;2023-04-03T00:57:23;7.10;;;6.47;;
6342;SDS011;3204;42.698;23.298;2023-04-03T00:59:50;8.37;;;6.53;;
6342;SDS011;3204;42.698;23.298;2023-04-03T01:02:19;7.87;;;7.10;;
6342;SDS011;3204;42.698;23.298;2023-04-03T01:04:45;8.30;;;7.00;;
6342;SDS011;3204;42.698;23.298;2023-04-03T01:07:15;9.80;;;6.67;;
6342;SDS011;3204;42.698;23.298;2023-04-03T01:09:44;8.50;;;7.70;;
6342;SDS011;3204;42.698;23.298;2023-04-03T01:14:44;22.90;;;13.03;;
6342;SDS011;3204;42.698;23.298;2023-04-03T01:25:28;16.77;;;10.07;;
6342;SDS011;3204;42.698;23.298;2023-04-03T01:27:54;14.63;;;10.03;;
6342;SDS011;3204;42.698;23.298;2023-04-03T01:30:20;24.13;;;11.63;;
6342;SDS011;3204;42.698;23.298;2023-04-03T01:32:50;13.77;;;10.23;;
6342;SDS011;3204;42.698;23.298;2023-04-03T01:35:15;10.40;;;7.90;;
6342;SDS011;3204;42.698;23.298;2023-04-03T01:37:40;5.63;;;5.17;;
6342;SDS011;3204;42.698;23.298;2023-04-03T01:40:06;5.10;;;4.70;;
6342;SDS011;3204;42.698;23.298;2023-04-03T01:42:33;4.70;;;4.07;;
6342;SDS011;3204;42.698;23.298;2023-04-03T01:44:58;4.67;;;4.20;;
6342;SDS011;3204;42.698;23.298;2023-04-03T01:47:24;5.43;;;4.30;;
6342;SDS011;3204;42.698;23.298;2023-04-03T01:49:49;4.27;;;3.87;;
6342;SDS011;3204;42.698;23.298;2023-04-03T01:52:14;4.00;;;3.60;;
6342;SDS011;3204;42.698;23.298;2023-04-03T01:54:40;3.50;;;3.20;;
6342;SDS011;3204;42.698;23.298;2023-04-03T01:57:05;4.07;;;3.87;;
6342;SDS011;3204;42.698;23.298;2023-04-03T01:59:31;3.93;;;3.60;;
6342;SDS011;3204;42.698;23.298;2023-04-03T02:01:57;4.33;;;4.13;;
6342;SDS011;3204;42.698;23.298;2023-04-03T02:04:22;4.80;;;4.40;;
6342;SDS011;3204;42.698;23.298;2023-04-03T02:06:47;4.00;;;3.70;;
6342;SDS011;3204;42.698;23.298;2023-04-03T02:09:13;5.37;;;3.90;;
6342;SDS011;3204;42.698;23.298;2023-04-03T02:11:39;5.63;;;4.27;;
6342;SDS011;3204;42.698;23.298;2023-04-03T02:14:04;4.13;;;3.83;;
6342;SDS011;3204;42.698;23.298;2023-04-03T02:16:30;4.17;;;3.97;;
6342;SDS011;3204;42.698;23.298;2023-04-03T02:18:56;4.13;;;3.83;;
6342;SDS011;3204;42.698;23.298;2023-04-03T02:21:21;9.37;;;4.27;;
6342;SDS011;3204;42.698;23.298;2023-04-03T02:23:47;8.77;;;7.17;;
6342;SDS011;3204;42.698;23.298;2023-04-03T02:26:13;8.57;;;4.90;;
6342;SDS011;3204;42.698;23.298;2023-04-03T02:28:40;7.03;;;5.00;;
6342;SDS011;3204;42.698;23.298;2023-04-03T02:31:09;8.43;;;5.17;;
6342;SDS011;3204;42.698;23.298;2023-04-03T02:33:35;5.13;;;4.83;;
6342;SDS011;3204;42.698;23.298;2023-04-03T02:36:02;6.57;;;4.60;;
6342;SDS011;3204;42.698;23.298;2023-04-03T02:38:31;5.50;;;5.00;;
6342;SDS011;3204;42.698;23.298;2023-04-03T02:41:00;25.10;;;9.20;;
6342;SDS011;3204;42.698;23.298;2023-04-03T02:43:27;16.90;;;7.77;;
6342;SDS011;3204;42.698;23.298;2023-04-03T02:45:52;36.40;;;10.53;;
6342;SDS011;3204;42.698;23.298;2023-04-03T02:48:18;15.17;;;8.83;;
6342;SDS011;3204;42.698;23.298;2023-04-03T02:50:43;22.23;;;8.57;;
6342;SDS011;3204;42.698;23.298;2023-04-03T02:53:09;29.23;;;8.40;;
6342;SDS011;3204;42.698;23.298;2023-04-03T02:55:35;26.87;;;8.17;;
6342;SDS011;3204;42.698;23.298;2023-04-03T02:58:00;40.43;;;10.80;;
6342;SDS011;3204;42.698;23.298;2023-04-03T03:00:26;40.63;;;11.07;;
6342;SDS011;3204;42.698;23.298;2023-04-03T03:02:51;50.37;;;11.27;;
6342;SDS011;3204;42.698;23.298;2023-04-03T03:05:16;34.73;;;11.13;;
6342;SDS011;3204;42.698;23.298;2023-04-03T03:07:42;33.97;;;12.73;;
6342;SDS011;3204;42.698;23.298;2023-04-03T03:10:08;36.30;;;13.83;;
6342;SDS011;3204;42.698;23.298;2023-04-03T03:12:33;37.63;;;13.93;;
6342;SDS011;3204;42.698;23.298;2023-04-03T03:14:59;32.80;;;14.20;;
6342;SDS011;3204;42.698;23.298;2023-04-03T03:17:24;45.23;;;12.87;;
6342;SDS011;3204;42.698;23.298;2023-04-03T03:19:50;37.83;;;11.73;;
6342;SDS011;3204;42.698;23.298;2023-04-03T03:22:16;34.90;;;11.90;;
6342;SDS011;3204;42.698;23.298;2023-04-03T03:24:41;46.70;;;13.13;;
6342;SDS011;3204;42.698;23.298;2023-04-03T03:27:07;39.63;;;13.00;;
6342;SDS011;3204;42.698;23.298;2023-04-03T03:29:32;30.67;;;12.10;;
6342;SDS011;3204;42.698;23.298;2023-04-03T03:31:58;32.43;;;11.73;;
6342;SDS011;3204;42.698;23.298;2023-04-03T03:34:23;47.00;;;12.57;;
6342;SDS011;3204;42.698;23.298;2023-04-03T03:36:48;47.57;;;13.57;;
6342;SDS011;3204;42.698;23.298;2023-04-03T03:39:14;57.03;;;12.23;;
6342;SDS011;3204;42.698;23.298;2023-04-03T03:41:40;49.70;;;11.77;;
6342;SDS011;3204;42.698;23.298;2023-04-03T03:44:05;47.77;;;12.47;;
6342;SDS011;3204;42.698;23.298;2023-04-03T03:46:31;31.07;;;10.00;;
6342;SDS011;3204;42.698;23.298;2023-04-03T03:48:56;39.90;;;10.57;;
6342;SDS011;3204;42.698;23.298;2023-04-03T03:51:22;29.80;;;8.93;;
6342;SDS011;3204;42.698;23.298;2023-04-03T03:53:47;8.33;;;7.30;;
6342;SDS011;3204;42.698;23.298;2023-04-03T03:56:13;7.63;;;7.03;;
6342;SDS011;3204;42.698;23.298;2023-04-03T03:58:38;16.70;;;6.97;;
6342;SDS011;3204;42.698;23.298;2023-04-03T04:01:04;13.23;;;7.37;;
6342;SDS011;3204;42.698;23.298;2023-04-03T04:03:30;10.40;;;7.70;;
6342;SDS011;3204;42.698;23.298;2023-04-03T04:05:56;10.57;;;7.73;;
6342;SDS011;3204;42.698;23.298;2023-04-03T04:08:22;10.17;;;7.87;;
6342;SDS011;3204;42.698;23.298;2023-04-03T04:10:47;11.97;;;8.60;;
6342;SDS011;3204;42.698;23.298;2023-04-03T04:13:13;12.87;;;8.27;;
6342;SDS011;3204;42.698;23.298;2023-04-03T04:15:38;22.23;;;9.10;;
6342;SDS011;3204;42.698;23.298;2023-04-03T04:18:04;28.07;;;9.40;;
6342;SDS011;3204;42.698;23.298;2023-04-03T04:20:29;27.07;;;9.77;;
6342;SDS011;3204;42.698;23.298;2023-04-03T04:22:55;32.23;;;11.10;;
6342;SDS011;3204;42.698;23.298;2023-04-03T04:25:20;27.73;;;11.90;;
6342;SDS011;3204;42.698;23.298;2023-04-03T04:27:46;31.50;;;12.20;;
6342;SDS011;3204;42.698;23.298;2023-04-03T04:30:11;35.43;;;13.23;;
6342;SDS011;3204;42.698;23.298;2023-04-03T04:32:37;30.93;;;14.73;;
6342;SDS011;3204;42.698;23.298;2023-04-03T04:35:03;23.53;;;13.33;;
6342;SDS011;3204;42.698;23.298;2023-04-03T04:37:29;21.73;;;12.30;;
6342;SDS011;3204;42.698;23.298;2023-04-03T04:39:54;24.33;;;11.23;;
6342;SDS011;3204;42.698;23.298;2023-04-03T04:42:20;34.33;;;9.70;;
6342;SDS011;3204;42.698;23.298;2023-04-03T04:44:46;24.43;;;10.33;;
6342;SDS011;3204;42.698;23.298;2023-04-03T04:47:11;20.73;;;10.67;;
6342;SDS011;3204;42.698;23.298;2023-04-03T04:49:36;20.43;;;10.40;;
6342;SDS011;3204;42.698;23.298;2023-04-03T04:52:02;31.20;;;14.23;;
6342;SDS011;3204;42.698;23.298;2023-04-03T04:54:27;24.83;;;11.87;;
6342;SDS011;3204;42.698;23.298;2023-04-03T04:56:52;21.33;;;11.73;;
6342;SDS011;3204;42.698;23.298;2023-04-03T04:59:18;37.13;;;12.20;;
6342;SDS011;3204;42.698;23.298;2023-04-03T05:01:43;16.67;;;10.63;;
6342;SDS011;3204;42.698;23.298;2023-04-03T05:04:09;23.77;;;12.83;;
6342;SDS011;3204;42.698;23.298;2023-04-03T05:06:34;30.20;;;14.63;;
6342;SDS011;3204;42.698;23.298;2023-04-03T05:09:00;25.07;;;12.07;;
6342;SDS011;3204;42.698;23.298;2023-04-03T05:11:26;21.97;;;12.10;;
6342;SDS011;3204;42.698;23.298;2023-04-03T05:13:52;17.43;;;11.73;;
6342;SDS011;3204;42.698;23.298;2023-04-03T05:16:17;23.20;;;12.83;;
6342;SDS011;3204;42.698;23.298;2023-04-03T05:18:42;25.40;;;11.80;;
6342;SDS011;3204;42.698;23.298;2023-04-03T05:21:08;18.90;;;12.10;;
6342;SDS011;3204;42.698;23.298;2023-04-03T05:23:34;21.67;;;10.77;;
6342;SDS011;3204;42.698;23.298;2023-04-03T05:25:59;15.63;;;10.73;;
6342;SDS011;3204;42.698;23.298;2023-04-03T05:28:25;12.53;;;9.83;;
6342;SDS011;3204;42.698;23.298;2023-04-03T05:30:54;13.10;;;9.77;;
6342;SDS011;3204;42.698;23.298;2023-04-03T05:33:21;16.07;;;9.70;;
6342;SDS011;3204;42.698;23.298;2023-04-03T05:35:46;13.50;;;9.00;;
6342;SDS011;3204;42.698;23.298;2023-04-03T05:38:11;16.13;;;9.90;;
6342;SDS011;3204;42.698;23.298;2023-04-03T05:40:37;18.40;;;9.80;;
6342;SDS011;3204;42.698;23.298;2023-04-03T05:43:03;15.80;;;10.53;;
6342;SDS011;3204;42.698;23.298;2023-04-03T05:45:29;24.60;;;10.93;;
6342;SDS011;3204;42.698;23.298;2023-04-03T05:47:54;19.60;;;12.70;;
6342;SDS011;3204;42.698;23.298;2023-04-03T05:50:20;24.67;;;14.97;;
6342;SDS011;3204;42.698;23.298;2023-04-03T05:52:46;30.87;;;15.63;;
6342;SDS011;3204;42.698;23.298;2023-04-03T05:55:14;27.80;;;16.47;;
6342;SDS011;3204;42.698;23.298;2023-04-03T05:57:40;24.80;;;13.57;;
6342;SDS011;3204;42.698;23.298;2023-04-03T06:00:07;21.90;;;13.40;;
6342;SDS011;3204;42.698;23.298;2023-04-03T06:02:34;23.20;;;13.00;;
6342;SDS011;3204;42.698;23.298;2023-04-03T06:05:00;21.47;;;12.67;;
6342;SDS011;3204;42.698;23.298;2023-04-03T06:07:26;19.90;;;13.83;;
6342;SDS011;3204;42.698;23.298;2023-04-03T06:09:54;23.07;;;13.43;;
6342;SDS011;3204;42.698;23.298;2023-04-03T06:12:20;26.17;;;13.67;;
6342;SDS011;3204;42.698;23.298;2023-04-03T06:14:46;25.80;;;12.83;;
6342;SDS011;3204;42.698;23.298;2023-04-03T06:17:12;29.67;;;14.50;;
6342;SDS011;3204;42.698;23.298;2023-04-03T06:19:39;27.10;;;14.30;;
6342;SDS011;3204;42.698;23.298;2023-04-03T06:22:05;42.50;;;15.13;;
6342;SDS011;3204;42.698;23.298;2023-04-03T06:24:31;24.03;;;14.80;;
6342;SDS011;3204;42.698;23.298;2023-04-03T06:26:57;32.57;;;15.70;;
6342;SDS011;3204;42.698;23.298;2023-04-03T06:29:23;36.77;;;17.23;;
6342;SDS011;3204;42.698;23.298;2023-04-03T06:31:49;31.80;;;15.10;;
6342;SDS011;3204;42.698;23.298;2023-04-03T06:34:15;18.77;;;12.97;;
6342;SDS011;3204;42.698;23.298;2023-04-03T06:36:41;20.57;;;12.73;;
6342;SDS011;3204;42.698;23.298;2023-04-03T06:39:08;14.57;;;11.70;;
6342;SDS011;3204;42.698;23.298;2023-04-03T06:41:38;23.63;;;12.80;;
6342;SDS011;3204;42.698;23.298;2023-04-03T06:44:03;18.03;;;11.97;;
6342;SDS011;3204;42.698;23.298;2023-04-03T06:46:29;18.17;;;11.73;;
6342;SDS011;3204;42.698;23.298;2023-04-03T06:48:55;19.23;;;12.57;;
6342;SDS011;3204;42.698;23.298;2023-04-03T06:51:22;16.03;;;11.13;;
6342;SDS011;3204;42.698;23.298;2023-04-03T06:53:52;14.13;;;10.53;;
6342;SDS011;3204;42.698;23.298;2023-04-03T06:56:18;20.53;;;11.40;;
6342;SDS011;3204;42.698;23.298;2023-04-03T06:58:45;19.87;;;11.17;;
6342;SDS011;3204;42.698;23.298;2023-04-03T07:01:11;17.13;;;11.40;;
6342;SDS011;3204;42.698;23.298;2023-04-03T07:03:39;17.10;;;12.17;;
6342;SDS011;3204;42.698;23.298;2023-04-03T07:06:06;16.57;;;12.10;;
6342;SDS011;3204;42.698;23.298;2023-04-03T07:08:33;14.90;;;12.30;;
6342;SDS011;3204;42.698;23.298;2023-04-03T07:10:58;20.13;;;12.20;;
6342;SDS011;3204;42.698;23.298;2023-04-03T07:13:24;23.20;;;13.37;;
6342;SDS011;3204;42.698;23.298;2023-04-03T07:15:50;26.30;;;13.53;;
6342;SDS011;3204;42.698;23.298;2023-04-03T07:18:15;21.17;;;13.37;;
6342;SDS011;3204;42.698;23.298;2023-04-03T07:20:42;15.93;;;12.50;;
6342;SDS011;3204;42.698;23.298;2023-04-03T07:23:07;26.53;;;14.37;;
6342;SDS011;3204;42.698;23.298;2023-04-03T07:25:33;25.30;;;14.83;;
6342;SDS011;3204;42.698;23.298;2023-04-03T07:27:59;24.27;;;15.13;;
6342;SDS011;3204;42.698;23.298;2023-04-03T07:30:24;29.95;;;15.68;;
6342;SDS011;3204;42.698;23.298;2023-04-03T07:32:51;124.75;;;49.72;;
6342;SDS011;3204;42.698;23.298;2023-04-03T07:35:16;38.20;;;20.67;;
6342;SDS011;3204;42.698;23.298;2023-04-03T07:37:42;27.45;;;14.65;;
6342;SDS011;3204;42.698;23.298;2023-04-03T07:40:08;15.68;;;11.90;;
6342;SDS011;3204;42.698;23.298;2023-04-03T07:42:35;21.33;;;12.75;;
6342;SDS011;3204;42.698;23.298;2023-04-03T07:45:01;16.15;;;12.85;;
6342;SDS011;3204;42.698;23.298;2023-04-03T07:47:30;13.02;;;11.32;;
6342;SDS011;3204;42.698;23.298;2023-04-03T07:49:56;29.95;;;12.70;;
6342;SDS011;3204;42.698;23.298;2023-04-03T07:52:23;14.68;;;11.45;;
6342;SDS011;3204;42.698;23.298;2023-04-03T07:54:49;11.68;;;9.02;;
6342;SDS011;3204;42.698;23.298;2023-04-03T07:57:14;10.40;;;9.50;;
6342;SDS011;3204;42.698;23.298;2023-04-03T07:59:41;14.35;;;11.30;;
6342;SDS011;3204;42.698;23.298;2023-04-03T08:02:10;23.17;;;13.70;;
6342;SDS011;3204;42.698;23.298;2023-04-03T08:04:37;18.70;;;14.05;;
6342;SDS011;3204;42.698;23.298;2023-04-03T08:07:03;23.73;;;13.68;;
6342;SDS011;3204;42.698;23.298;2023-04-03T08:09:28;27.30;;;13.77;;
6342;SDS011;3204;42.698;23.298;2023-04-03T08:11:53;17.95;;;12.13;;
6342;SDS011;3204;42.698;23.298;2023-04-03T08:14:19;19.95;;;11.80;;
6342;SDS011;3204;42.698;23.298;2023-04-03T08:16:46;18.27;;;12.57;;
6342;SDS011;3204;42.698;23.298;2023-04-03T08:19:13;17.50;;;13.00;;
6342;SDS011;3204;42.698;23.298;2023-04-03T08:21:41;14.53;;;12.97;;
6342;SDS011;3204;42.698;23.298;2023-04-03T08:24:07;17.10;;;12.70;;
6342;SDS011;3204;42.698;23.298;2023-04-03T08:26:34;15.60;;;12.80;;
6342;SDS011;3204;42.698;23.298;2023-04-03T08:29:00;15.15;;;12.95;;
6342;SDS011;3204;42.698;23.298;2023-04-03T08:31:25;17.63;;;13.50;;
6342;SDS011;3204;42.698;23.298;2023-04-03T08:33:51;19.73;;;12.68;;
6342;SDS011;3204;42.698;23.298;2023-04-03T08:38:42;29.17;;;13.87;;
6342;SDS011;3204;42.698;23.298;2023-04-03T08:49:42;19.38;;;12.43;;
6342;SDS011;3204;42.698;23.298;2023-04-03T08:52:11;15.00;;;12.98;;
6342;SDS011;3204;42.698;23.298;2023-04-03T08:55:01;20.38;;;13.77;;
6342;SDS011;3204;42.698;23.298;2023-04-03T08:57:33;14.75;;;12.77;;
6342;SDS011;3204;42.698;23.298;2023-04-03T09:00:03;20.80;;;12.38;;
6342;SDS011;3204;42.698;23.298;2023-04-03T09:02:49;16.55;;;12.00;;
6342;SDS011;3204;42.698;23.298;2023-04-03T09:07:59;25.23;;;14.07;;
6342;SDS011;3204;42.698;23.298;2023-04-03T09:10:29;15.30;;;12.88;;
6342;SDS011;3204;42.698;23.298;2023-04-03T09:16:12;18.63;;;13.52;;
6342;SDS011;3204;42.698;23.298;2023-04-03T09:18:45;17.50;;;13.88;;
6342;SDS011;3204;42.698;23.298;2023-04-03T09:21:21;17.45;;;13.40;;
6342;SDS011;3204;42.698;23.298;2023-04-03T09:24:02;21.02;;;17.80;;
6342;SDS011;3204;42.698;23.298;2023-04-03T09:29:19;18.67;;;13.50;;
6342;SDS011;3204;42.698;23.298;2023-04-03T09:31:47;20.60;;;15.02;;
6342;SDS011;3204;42.698;23.298;2023-04-03T09:39:20;20.98;;;14.07;;
6342;SDS011;3204;42.698;23.298;2023-04-03T09:42:32;18.23;;;13.90;;
6342;SDS011;3204;42.698;23.298;2023-04-03T09:44:56;20.55;;;13.68;;
6342;SDS011;3204;42.698;23.298;2023-04-03T09:47:32;21.77;;;14.13;;
6342;SDS011;3204;42.698;23.298;2023-04-03T09:50:17;21.95;;;15.73;;
6342;SDS011;3204;42.698;23.298;2023-04-03T09:52:46;23.60;;;16.30;;
6342;SDS011;3204;42.698;23.298;2023-04-03T09:55:14;24.52;;;16.58;;
6342;SDS011;3204;42.698;23.298;2023-04-03T09:57:46;20.77;;;16.10;;
6342;SDS011;3204;42.698;23.298;2023-04-03T10:00:23;17.95;;;14.50;;
6342;SDS011;3204;42.698;23.298;2023-04-03T10:02:53;19.52;;;13.00;;
6342;SDS011;3204;42.698;23.298;2023-04-03T10:08:09;17.48;;;13.60;;
6342;SDS011;3204;42.698;23.298;2023-04-03T10:10:41;18.52;;;13.90;;
6342;SDS011;3204;42.698;23.298;2023-04-03T10:13:19;11.65;;;10.43;;
6342;SDS011;3204;42.698;23.298;2023-04-03T10:15:50;19.42;;;11.48;;
6342;SDS011;3204;42.698;23.298;2023-04-03T10:18:38;15.45;;;11.75;;
6342;SDS011;3204;42.698;23.298;2023-04-03T10:21:32;20.23;;;11.77;;
6342;SDS011;3204;42.698;23.298;2023-04-03T10:24:03;19.63;;;11.75;;
6342;SDS011;3204;42.698;23.298;2023-04-03T10:26:49;14.68;;;12.57;;
6342;SDS011;3204;42.698;23.298;2023-04-03T10:29:25;13.80;;;11.10;;
6342;SDS011;3204;42.698;23.298;2023-04-03T10:35:13;10.20;;;8.75;;
6342;SDS011;3204;42.698;23.298;2023-04-03T10:46:49;9.90;;;7.30;;
6342;SDS011;3204;42.698;23.298;2023-04-03T10:58:06;7.93;;;6.80;;
6342;SDS011;3204;42.698;23.298;2023-04-03T11:00:43;7.63;;;6.78;;
6342;SDS011;3204;42.698;23.298;2023-04-03T11:03:14;7.25;;;6.55;;
6342;SDS011;3204;42.698;23.298;2023-04-03T11:05:47;6.18;;;5.68;;
6342;SDS011;3204;42.698;23.298;2023-04-03T11:11:04;6.28;;;5.88;;
6342;SDS011;3204;42.698;23.298;2023-04-03T11:13:41;5.88;;;5.47;;
6342;SDS011;3204;42.698;23.298;2023-04-03T11:16:15;5.53;;;4.45;;
6342;SDS011;3204;42.698;23.298;2023-04-03T11:18:52;3.95;;;3.75;;
6342;SDS011;3204;42.698;23.298;2023-04-03T11:21:31;4.72;;;4.32;;
6342;SDS011;3204;42.698;23.298;2023-04-03T11:24:04;5.05;;;4.65;;
6342;SDS011;3204;42.698;23.298;2023-04-03T11:26:35;5.25;;;4.75;;
6342;SDS011;3204;42.698;23.298;2023-04-03T11:29:07;5.22;;;4.82;;
6342;SDS011;3204;42.698;23.298;2023-04-03T11:34:56;5.22;;;4.93;;
6342;SDS011;3204;42.698;23.298;2023-04-03T11:37:04;5.10;;;4.63;;
6342;SDS011;3204;42.698;23.298;2023-04-03T11:39:38;5.60;;;3.88;;
6342;SDS011;3204;42.698;23.298;2023-04-03T11:42:35;9.25;;;5.30;;
6342;SDS011;3204;42.698;23.298;2023-04-03T11:45:17;4.65;;;4.25;;
6342;SDS011;3204;42.698;23.298;2023-04-03T11:47:58;4.80;;;4.40;;
6342;SDS011;3204;42.698;23.298;2023-04-03T11:53:01;4.22;;;4.00;;
6342;SDS011;3204;42.698;23.298;2023-04-03T12:13:40;3.58;;;3.30;;
6342;SDS011;3204;42.698;23.298;2023-04-03T12:16:19;3.97;;;3.50;;
6342;SDS011;3204;42.698;23.298;2023-04-03T12:21:19;3.33;;;3.15;;
6342;SDS011;3204;42.698;23.298;2023-04-03T12:29:20;3.42;;;3.33;;
6342;SDS011;3204;42.698;23.298;2023-04-03T12:48:24;3.92;;;3.72;;
6342;SDS011;3204;42.698;23.298;2023-04-03T12:50:51;5.20;;;4.10;;
6342;SDS011;3204;42.698;23.298;2023-04-03T12:53:27;4.57;;;4.37;;
6342;SDS011;3204;42.698;23.298;2023-04-03T12:56:18;4.77;;;4.47;;
6342;SDS011;3204;42.698;23.298;2023-04-03T12:58:52;5.33;;;5.03;;
6342;SDS011;3204;42.698;23.298;2023-04-03T13:01:25;5.53;;;5.23;;
6342;SDS011;3204;42.698;23.298;2023-04-03T13:03:52;5.27;;;4.87;;
6342;SDS011;3204;42.698;23.298;2023-04-03T13:06:27;6.10;;;5.53;;
6342;SDS011;3204;42.698;23.298;2023-04-03T13:08:58;5.83;;;5.50;;
6342;SDS011;3204;42.698;23.298;2023-04-03T13:11:30;6.23;;;5.67;;
6342;SDS011;3204;42.698;23.298;2023-04-03T13:14:04;6.87;;;6.30;;
6342;SDS011;3204;42.698;23.298;2023-04-03T13:16:39;6.60;;;6.13;;
6342;SDS011;3204;42.698;23.298;2023-04-03T13:19:06;6.30;;;5.90;;
6342;SDS011;3204;42.698;23.298;2023-04-03T13:21:42;7.07;;;6.47;;
6342;SDS011;3204;42.698;23.298;2023-04-03T13:24:09;7.20;;;6.70;;
6342;SDS011;3204;42.698;23.298;2023-04-03T13:26:35;7.40;;;6.87;;
6342;SDS011;3204;42.698;23.298;2023-04-03T13:29:04;8.83;;;8.10;;
6342;SDS011;3204;42.698;23.298;2023-04-03T13:31:36;8.80;;;8.20;;
6342;SDS011;3204;42.698;23.298;2023-04-03T13:36:41;9.03;;;8.43;;
6342;SDS011;3204;42.698;23.298;2023-04-03T13:41:40;9.60;;;8.80;;
6342;SDS011;3204;42.698;23.298;2023-04-03T13:46:48;8.03;;;7.37;;
6342;SDS011;3204;42.698;23.298;2023-04-03T13:52:26;7.10;;;6.70;;
6342;SDS011;3204;42.698;23.298;2023-04-03T13:54:55;6.07;;;5.67;;
6342;SDS011;3204;42.698;23.298;2023-04-03T13:57:23;7.37;;;6.73;;
6342;SDS011;3204;42.698;23.298;2023-04-03T13:59:50;6.80;;;6.40;;
6342;SDS011;3204;42.698;23.298;2023-04-03T14:02:28;7.90;;;7.20;;
6342;SDS011;3204;42.698;23.298;2023-04-03T14:04:57;6.87;;;6.37;;
6342;SDS011;3204;42.698;23.298;2023-04-03T14:07:26;6.90;;;6.40;;
6342;SDS011;3204;42.698;23.298;2023-04-03T14:09:54;8.73;;;7.83;;
6342;SDS011;3204;42.698;23.298;2023-04-03T14:12:31;7.80;;;7.20;;
6342;SDS011;3204;42.698;23.298;2023-04-03T14:15:01;8.13;;;7.57;;
6342;SDS011;3204;42.698;23.298;2023-04-03T14:17:28;8.13;;;7.63;;
6342;SDS011;3204;42.698;23.298;2023-04-03T14:19:54;8.30;;;7.70;;
6342;SDS011;3204;42.698;23.298;2023-04-03T14:22:25;8.50;;;7.83;;
6342;SDS011;3204;42.698;23.298;2023-04-03T14:24:53;8.23;;;7.67;;
6342;SDS011;3204;42.698;23.298;2023-04-03T14:27:33;8.77;;;8.27;;
6342;SDS011;3204;42.698;23.298;2023-04-03T14:30:01;9.30;;;8.60;;
6342;SDS011;3204;42.698;23.298;2023-04-03T14:32:33;8.47;;;7.77;;
6342;SDS011;3204;42.698;23.298;2023-04-03T14:35:01;8.63;;;8.03;;
6342;SDS011;3204;42.698;23.298;2023-04-03T14:37:28;9.00;;;8.40;;
6342;SDS011;3204;42.698;23.298;2023-04-03T14:39:56;9.50;;;8.90;;
6342;SDS011;3204;42.698;23.298;2023-04-03T14:42:24;8.80;;;7.97;;
6342;SDS011;3204;42.698;23.298;2023-04-03T14:44:52;8.27;;;7.77;;
6342;SDS011;3204;42.698;23.298;2023-04-03T14:47:19;8.20;;;7.57;;
6342;SDS011;3204;42.698;23.298;2023-04-03T14:49:47;8.50;;;7.80;;
6342;SDS011;3204;42.698;23.298;2023-04-03T14:52:16;7.70;;;7.30;;
6342;SDS011;3204;42.698;23.298;2023-04-03T14:54:44;8.17;;;7.20;;
6342;SDS011;3204;42.698;23.298;2023-04-03T14:57:11;8.13;;;7.53;;
6342;SDS011;3204;42.698;23.298;2023-04-03T14:59:39;7.33;;;6.93;;
6342;SDS011;3204;42.698;23.298;2023-04-03T15:02:47;7.33;;;6.93;;
6342;SDS011;3204;42.698;23.298;2023-04-03T15:04:57;7.17;;;6.67;;
6342;SDS011;3204;42.698;23.298;2023-04-03T15:07:25;6.87;;;6.47;;
6342;SDS011;3204;42.698;23.298;2023-04-03T15:09:53;6.73;;;6.27;;
6342;SDS011;3204;42.698;23.298;2023-04-03T15:12:21;5.97;;;5.57;;
6342;SDS011;3204;42.698;23.298;2023-04-03T15:14:47;5.90;;;5.60;;
6342;SDS011;3204;42.698;23.298;2023-04-03T15:17:16;5.40;;;5.10;;
6342;SDS011;3204;42.698;23.298;2023-04-03T15:19:45;5.60;;;5.10;;
6342;SDS011;3204;42.698;23.298;2023-04-03T15:22:15;5.70;;;5.10;;
6342;SDS011;3204;42.698;23.298;2023-04-03T15:24:43;5.00;;;4.80;;
6342;SDS011;3204;42.698;23.298;2023-04-03T15:27:09;4.80;;;4.50;;
6342;SDS011;3204;42.698;23.298;2023-04-03T15:29:36;4.70;;;4.40;;
6342;SDS011;3204;42.698;23.298;2023-04-03T15:32:03;4.30;;;4.10;;
6342;SDS011;3204;42.698;23.298;2023-04-03T15:34:28;5.07;;;4.73;;
6342;SDS011;3204;42.698;23.298;2023-04-03T15:36:54;10.53;;;4.97;;
6342;SDS011;3204;42.698;23.298;2023-04-03T15:39:20;4.73;;;4.53;;
6342;SDS011;3204;42.698;23.298;2023-04-03T15:41:46;4.80;;;4.60;;
6342;SDS011;3204;42.698;23.298;2023-04-03T15:44:12;4.93;;;4.63;;
6342;SDS011;3204;42.698;23.298;2023-04-03T15:46:38;4.57;;;4.33;;
6342;SDS011;3204;42.698;23.298;2023-04-03T15:49:04;4.50;;;4.30;;
6342;SDS011;3204;42.698;23.298;2023-04-03T15:51:30;4.10;;;3.80;;
6342;SDS011;3204;42.698;23.298;2023-04-03T15:53:56;4.60;;;4.40;;
6342;SDS011;3204;42.698;23.298;2023-04-03T15:56:21;5.37;;;5.07;;
6342;SDS011;3204;42.698;23.298;2023-04-03T15:58:47;4.57;;;4.27;;
6342;SDS011;3204;42.698;23.298;2023-04-03T16:01:12;4.60;;;4.30;;
6342;SDS011;3204;42.698;23.298;2023-04-03T16:03:39;4.47;;;4.27;;
6342;SDS011;3204;42.698;23.298;2023-04-03T16:06:10;5.10;;;4.80;;
6342;SDS011;3204;42.698;23.298;2023-04-03T16:08:40;5.77;;;5.13;;
6342;SDS011;3204;42.698;23.298;2023-04-03T16:11:06;5.97;;;5.67;;
6342;SDS011;3204;42.698;23.298;2023-04-03T16:13:31;6.20;;;5.80;;
6342;SDS011;3204;42.698;23.298;2023-04-03T16:15:58;5.93;;;5.53;;
6342;SDS011;3204;42.698;23.298;2023-04-03T16:18:25;6.03;;;5.73;;
6342;SDS011;3204;42.698;23.298;2023-04-03T16:20:51;7.07;;;6.57;;
6342;SDS011;3204;42.698;23.298;2023-04-03T16:23:17;7.10;;;6.70;;
6342;SDS011;3204;42.698;23.298;2023-04-03T16:25:43;7.43;;;6.93;;
6342;SDS011;3204;42.698;23.298;2023-04-03T16:28:11;8.43;;;7.73;;
6342;SDS011;3204;42.698;23.298;2023-04-03T16:30:38;7.60;;;7.10;;
6342;SDS011;3204;42.698;23.298;2023-04-03T16:33:05;7.47;;;7.07;;
6342;SDS011;3204;42.698;23.298;2023-04-03T16:35:31;7.60;;;7.00;;
6342;SDS011;3204;42.698;23.298;2023-04-03T16:37:56;8.13;;;7.50;;
6342;SDS011;3204;42.698;23.298;2023-04-03T16:40:22;9.67;;;8.97;;
6342;SDS011;3204;42.698;23.298;2023-04-03T16:42:47;9.73;;;9.03;;
6342;SDS011;3204;42.698;23.298;2023-04-03T16:45:13;8.63;;;7.93;;
6342;SDS011;3204;42.698;23.298;2023-04-03T16:47:38;8.97;;;8.27;;
6342;SDS011;3204;42.698;23.298;2023-04-03T16:50:04;9.10;;;8.30;;
6342;SDS011;3204;42.698;23.298;2023-04-03T16:52:30;8.07;;;7.60;;
6342;SDS011;3204;42.698;23.298;2023-04-03T16:54:55;8.97;;;8.47;;
6342;SDS011;3204;42.698;23.298;2023-04-03T16:57:23;7.10;;;6.60;;